Time;durP1;ratioP1;P1;durP2;ratioP2;P2;SDS_P1;SDS_P2;PMS_P1;PMS_P2;Temp;Humidity;BMP_temperature;BMP_pressure;BME280_temperature;BME280_humidity;BME280_pressure;Samples;Min_cycle;Max_cycle;Signal;HPM_P1;HPM_P2
2022/03/16 00:00:18;;;;;;;5.35;4.85;;;;;;;;;;1619663;30;22422;-64
2022/03/16 00:01:09;;;;;;;5.35;4.57;;;;;;;;;;1618565;30;21764;-65
2022/03/16 00:02:04;;;;;;;5.15;4.43;;;;;;;;;;1620236;30;22495;-64
2022/03/16 00:02:55;;;;;;;5.50;4.93;;;;;;;;;;1620296;30;21584;-63
2022/03/16 00:03:47;;;;;;;5.75;5.03;;;;;;;;;;1619934;30;22132;-63
2022/03/16 00:04:38;;;;;;;5.03;4.60;;;;;;;;;;1624285;30;22080;-63
2022/03/16 00:05:31;;;;;;;5.15;4.40;;;;;;;;;;1618800;30;22250;-64
2022/03/16 00:06:22;;;;;;;10.73;4.38;;;;;;;;;;1617251;30;22400;-63
2022/03/16 00:07:15;;;;;;;5.75;5.10;;;;;;;;;;1618030;30;21633;-64
2022/03/16 00:08:06;;;;;;;5.38;4.63;;;;;;;;;;1620443;30;21814;-63
2022/03/16 00:08:58;;;;;;;5.65;4.38;;;;;;;;;;1619725;30;21546;-64
2022/03/16 00:09:50;;;;;;;6.70;4.80;;;;;;;;;;1621569;30;22226;-64
2022/03/16 00:10:42;;;;;;;9.35;4.32;;;;;;;;;;1619391;30;21716;-64
2022/03/16 00:11:34;;;;;;;5.35;4.57;;;;;;;;;;1619803;30;21665;-64
2022/03/16 00:12:26;;;;;;;5.00;4.60;;;;;;;;;;1620712;30;21607;-64
2022/03/16 00:13:17;;;;;;;7.20;5.10;;;;;;;;;;1619023;30;21653;-64
2022/03/16 00:14:10;;;;;;;5.03;4.60;;;;;;;;;;1620070;30;21722;-64
2022/03/16 00:15:01;;;;;;;4.50;4.20;;;;;;;;;;1620263;30;22286;-64
2022/03/16 00:15:55;;;;;;;4.80;4.30;;;;;;;;;;1618481;30;21606;-64
2022/03/16 00:16:46;;;;;;;5.40;3.92;;;;;;;;;;1618845;30;22307;-63
2022/03/16 00:17:40;;;;;;;4.85;4.30;;;;;;;;;;1618429;30;21584;-63
2022/03/16 00:18:31;;;;;;;6.22;4.30;;;;;;;;;;1619480;30;22623;-64
2022/03/16 00:19:24;;;;;;;8.57;4.35;;;;;;;;;;1619011;29;21953;-64
2022/03/16 00:20:15;;;;;;;12.82;4.70;;;;;;;;;;1619868;30;22085;-63
2022/03/16 00:21:07;;;;;;;9.13;4.70;;;;;;;;;;1619033;30;22468;-64
2022/03/16 00:22:01;;;;;;;4.82;4.40;;;;;;;;;;1617570;30;21982;-62
2022/03/16 00:22:53;;;;;;;9.05;4.80;;;;;;;;;;1621746;30;21585;-63
2022/03/16 00:23:44;;;;;;;7.22;4.38;;;;;;;;;;1618213;30;21638;-63
2022/03/16 00:24:37;;;;;;;8.38;4.20;;;;;;;;;;1622485;30;22488;-64
2022/03/16 00:25:28;;;;;;;9.13;4.32;;;;;;;;;;1618979;30;22188;-65
2022/03/16 00:26:21;;;;;;;4.95;4.45;;;;;;;;;;1619661;30;22276;-64
2022/03/16 00:27:12;;;;;;;7.20;4.47;;;;;;;;;;1618850;30;21639;-64
2022/03/16 00:28:05;;;;;;;4.95;4.38;;;;;;;;;;1623506;30;21641;-64
2022/03/16 00:28:56;;;;;;;10.93;5.03;;;;;;;;;;1618238;30;21896;-65
2022/03/16 00:29:48;;;;;;;6.25;4.00;;;;;;;;;;1618905;30;21946;-64
2022/03/16 00:30:39;;;;;;;4.32;3.92;;;;;;;;;;1619417;30;22247;-65
2022/03/16 00:31:34;;;;;;;5.82;4.28;;;;;;;;;;1623934;30;21938;-64
2022/03/16 00:32:25;;;;;;;5.35;4.22;;;;;;;;;;1623346;30;21909;-64
2022/03/16 00:33:19;;;;;;;7.03;3.10;;;;;;;;;;1622114;30;22291;-65
2022/03/16 00:34:10;;;;;;;6.97;3.70;;;;;;;;;;1619662;30;21601;-64
2022/03/16 00:35:03;;;;;;;8.27;4.40;;;;;;;;;;1621576;30;21614;-65
2022/03/16 00:35:54;;;;;;;4.47;4.05;;;;;;;;;;1618797;30;22244;-64
2022/03/16 00:36:46;;;;;;;8.23;4.60;;;;;;;;;;1615339;30;21810;-64
2022/03/16 00:37:38;;;;;;;9.10;4.00;;;;;;;;;;1619911;30;22437;-64
2022/03/16 00:38:30;;;;;;;7.85;3.97;;;;;;;;;;1619248;30;22357;-64
2022/03/16 00:39:22;;;;;;;7.35;4.22;;;;;;;;;;1619191;30;21700;-63
2022/03/16 00:40:14;;;;;;;7.78;3.75;;;;;;;;;;1618612;30;21655;-64
2022/03/16 00:41:07;;;;;;;5.25;3.88;;;;;;;;;;1620417;30;21875;-64
2022/03/16 00:42:03;;;;;;;3.92;3.53;;;;;;;;;;1621836;30;21731;-63
2022/03/16 00:42:54;;;;;;;4.50;3.95;;;;;;;;;;1619091;30;21638;-63
2022/03/16 00:43:46;;;;;;;14.93;3.75;;;;;;;;;;1619054;30;21725;-63
2022/03/16 00:44:37;;;;;;;4.43;3.83;;;;;;;;;;1620971;30;21827;-65
2022/03/16 00:46:08;;;;;;;4.78;3.53;;;;;;;;;;1620851;30;21958;-63
2022/03/16 00:47:00;;;;;;;4.43;4.03;;;;;;;;;;1622349;30;22207;-64
2022/03/16 00:47:53;;;;;;;3.88;3.58;;;;;;;;;;1622709;30;21665;-64
2022/03/16 00:48:46;;;;;;;4.70;3.50;;;;;;;;;;1618813;30;22631;-65
2022/03/16 00:49:39;;;;;;;4.43;3.33;;;;;;;;;;1624010;30;22151;-63
2022/03/16 00:50:30;;;;;;;4.78;3.67;;;;;;;;;;1624837;30;21679;-65
2022/03/16 00:51:22;;;;;;;6.45;4.00;;;;;;;;;;1619036;29;21967;-64
2022/03/16 00:52:14;;;;;;;4.13;3.65;;;;;;;;;;1618243;30;21848;-64
2022/03/16 00:53:06;;;;;;;4.45;4.05;;;;;;;;;;1620913;30;21631;-65
2022/03/16 00:53:58;;;;;;;5.68;3.97;;;;;;;;;;1618421;30;21613;-64
2022/03/16 00:54:50;;;;;;;5.05;4.05;;;;;;;;;;1619872;30;21767;-65
2022/03/16 00:55:41;;;;;;;3.75;3.45;;;;;;;;;;1620963;30;22428;-64
2022/03/16 00:56:34;;;;;;;3.70;3.50;;;;;;;;;;1618773;30;22049;-64
2022/03/16 00:57:25;;;;;;;4.30;3.90;;;;;;;;;;1618765;30;21610;-65
2022/03/16 00:58:17;;;;;;;4.63;4.15;;;;;;;;;;1621129;30;22523;-64
2022/03/16 00:59:08;;;;;;;4.70;3.33;;;;;;;;;;1620524;30;21593;-64
2022/03/16 01:00:01;;;;;;;7.80;3.45;;;;;;;;;;1617785;30;21591;-64
2022/03/16 01:00:52;;;;;;;4.68;3.85;;;;;;;;;;1619059;30;21696;-64
2022/03/16 01:01:45;;;;;;;3.60;3.30;;;;;;;;;;1622045;30;21562;-63
2022/03/16 01:02:36;;;;;;;3.45;3.15;;;;;;;;;;1619787;30;22212;-63
2022/03/16 01:03:29;;;;;;;3.80;3.38;;;;;;;;;;1617848;30;21608;-64
2022/03/16 01:04:22;;;;;;;6.82;3.33;;;;;;;;;;1619027;30;21602;-65
2022/03/16 01:05:14;;;;;;;6.38;3.90;;;;;;;;;;1620059;30;22603;-65
2022/03/16 01:06:12;;;;;;;3.92;3.63;;;;;;;;;;1620292;30;21633;-64
2022/03/16 01:07:05;;;;;;;3.75;3.08;;;;;;;;;;1619523;30;21863;-65
2022/03/16 01:07:56;;;;;;;3.70;3.40;;;;;;;;;;1621786;30;21987;-64
2022/03/16 01:08:48;;;;;;;4.30;3.70;;;;;;;;;;1619878;29;21625;-63
2022/03/16 01:09:40;;;;;;;11.50;3.33;;;;;;;;;;1622002;30;21578;-63
2022/03/16 01:10:33;;;;;;;3.67;3.35;;;;;;;;;;1618347;30;21741;-64
2022/03/16 01:11:24;;;;;;;9.38;3.42;;;;;;;;;;1618517;30;21624;-64
2022/03/16 01:12:16;;;;;;;18.52;4.38;;;;;;;;;;1620904;30;22008;-65
2022/03/16 01:13:08;;;;;;;7.68;3.58;;;;;;;;;;1620023;30;22036;-64
2022/03/16 01:14:00;;;;;;;13.23;3.50;;;;;;;;;;1617813;30;21636;-64
2022/03/16 01:14:52;;;;;;;7.82;3.63;;;;;;;;;;1618588;30;21770;-63
2022/03/16 01:15:44;;;;;;;7.90;3.72;;;;;;;;;;1618722;30;21762;-63
2022/03/16 01:16:38;;;;;;;5.47;4.05;;;;;;;;;;1619482;30;21735;-64
2022/03/16 01:17:31;;;;;;;4.88;3.92;;;;;;;;;;1620472;30;21768;-64
2022/03/16 01:18:22;;;;;;;15.00;3.72;;;;;;;;;;1619640;30;21609;-63
2022/03/16 01:19:15;;;;;;;8.57;3.63;;;;;;;;;;1619416;30;21565;-63
2022/03/16 01:20:08;;;;;;;4.95;3.90;;;;;;;;;;1618605;30;22343;-64
2022/03/16 01:21:01;;;;;;;9.82;3.85;;;;;;;;;;1618730;30;21646;-65
2022/03/16 01:21:53;;;;;;;5.47;3.75;;;;;;;;;;1618591;30;22409;-63
2022/03/16 01:22:46;;;;;;;3.90;3.35;;;;;;;;;;1620513;30;21656;-64
2022/03/16 01:23:38;;;;;;;4.20;3.42;;;;;;;;;;1620544;30;22035;-64
2022/03/16 01:24:30;;;;;;;8.95;3.40;;;;;;;;;;1620729;30;21847;-63
2022/03/16 01:25:21;;;;;;;5.95;3.60;;;;;;;;;;1618470;30;21671;-64
2022/03/16 01:26:14;;;;;;;13.85;3.25;;;;;;;;;;1619158;30;21685;-64
2022/03/16 01:27:05;;;;;;;10.85;4.50;;;;;;;;;;1621630;30;21632;-63
2022/03/16 01:27:57;;;;;;;3.95;3.55;;;;;;;;;;1621022;30;21582;-63
2022/03/16 01:28:49;;;;;;;12.52;3.92;;;;;;;;;;1619673;30;21840;-63
2022/03/16 01:29:41;;;;;;;9.60;3.72;;;;;;;;;;1619620;30;21601;-63
2022/03/16 01:30:32;;;;;;;5.72;3.42;;;;;;;;;;1621602;30;22633;-65
2022/03/16 01:31:25;;;;;;;3.65;3.35;;;;;;;;;;1618006;30;21608;-63
2022/03/16 01:32:16;;;;;;;5.43;3.83;;;;;;;;;;1617991;30;22242;-63
2022/03/16 01:33:08;;;;;;;6.90;3.47;;;;;;;;;;1619761;30;21631;-63
2022/03/16 01:34:00;;;;;;;8.00;3.63;;;;;;;;;;1620011;30;21677;-63
2022/03/16 01:34:52;;;;;;;4.25;3.92;;;;;;;;;;1620868;30;21665;-64
2022/03/16 01:35:44;;;;;;;4.80;3.50;;;;;;;;;;1620425;30;21611;-65
2022/03/16 01:36:37;;;;;;;6.82;3.78;;;;;;;;;;1617739;30;21679;-65
2022/03/16 01:37:30;;;;;;;4.20;3.80;;;;;;;;;;1620457;30;22438;-64
2022/03/16 01:38:22;;;;;;;6.13;3.58;;;;;;;;;;1619029;30;21826;-64
2022/03/16 01:39:14;;;;;;;8.48;3.13;;;;;;;;;;1619618;30;21812;-65
2022/03/16 01:40:08;;;;;;;3.53;3.20;;;;;;;;;;1624859;30;22222;-65
2022/03/16 01:40:59;;;;;;;7.53;3.85;;;;;;;;;;1621586;30;22364;-63
2022/03/16 01:41:51;;;;;;;11.50;3.92;;;;;;;;;;1619042;30;21770;-64
2022/03/16 01:42:43;;;;;;;5.18;3.63;;;;;;;;;;1618951;30;21587;-64
2022/03/16 01:43:35;;;;;;;6.53;3.42;;;;;;;;;;1620980;30;22032;-64
2022/03/16 01:44:48;;;;;;;5.00;4.03;;;;;;;;;;1618092;30;21593;-65
2022/03/16 01:45:47;;;;;;;4.45;4.05;;;;;;;;;;1618053;30;21771;-64
2022/03/16 01:46:38;;;;;;;5.57;3.63;;;;;;;;;;1620354;30;22781;-64
2022/03/16 01:47:30;;;;;;;3.95;3.38;;;;;;;;;;1616893;30;22088;-64
2022/03/16 01:48:22;;;;;;;5.45;3.67;;;;;;;;;;1619173;30;21789;-64
2022/03/16 01:49:14;;;;;;;3.60;3.30;;;;;;;;;;1619700;30;21697;-64
2022/03/16 01:50:08;;;;;;;4.65;3.70;;;;;;;;;;1619059;30;21629;-63
2022/03/16 01:51:02;;;;;;;6.15;4.10;;;;;;;;;;1618320;30;21905;-63
2022/03/16 01:51:53;;;;;;;3.08;2.85;;;;;;;;;;1620944;30;22066;-63
2022/03/16 01:52:46;;;;;;;4.97;3.67;;;;;;;;;;1618065;30;21745;-64
2022/03/16 01:53:37;;;;;;;3.83;3.47;;;;;;;;;;1618968;30;21961;-64
2022/03/16 01:54:30;;;;;;;5.18;3.90;;;;;;;;;;1619857;30;21839;-64
2022/03/16 01:55:21;;;;;;;4.80;4.25;;;;;;;;;;1620843;30;21756;-65
2022/03/16 01:56:16;;;;;;;6.93;3.60;;;;;;;;;;1619439;30;21604;-64
2022/03/16 01:57:09;;;;;;;4.28;3.10;;;;;;;;;;1620814;29;21595;-63
2022/03/16 01:58:02;;;;;;;6.25;3.30;;;;;;;;;;1620731;30;21788;-64
2022/03/16 01:58:53;;;;;;;4.00;3.35;;;;;;;;;;1619084;30;22111;-63
2022/03/16 01:59:47;;;;;;;4.10;3.35;;;;;;;;;;1620102;30;21632;-64
2022/03/16 02:00:38;;;;;;;3.75;3.45;;;;;;;;;;1620689;30;22645;-65
2022/03/16 02:01:31;;;;;;;4.18;3.60;;;;;;;;;;1618618;30;21770;-63
2022/03/16 02:02:22;;;;;;;4.63;3.15;;;;;;;;;;1611833;30;21763;-64
2022/03/16 02:03:14;;;;;;;5.05;3.38;;;;;;;;;;1615843;30;22275;-63
2022/03/16 02:04:06;;;;;;;3.85;3.40;;;;;;;;;;1620082;30;21695;-63
2022/03/16 02:04:58;;;;;;;3.47;3.17;;;;;;;;;;1618382;30;22509;-63
2022/03/16 02:05:50;;;;;;;6.55;4.53;;;;;;;;;;1620357;30;21598;-63
2022/03/16 02:06:43;;;;;;;6.15;3.70;;;;;;;;;;1618098;30;21934;-64
2022/03/16 02:07:37;;;;;;;5.10;3.30;;;;;;;;;;1620075;30;21722;-64
2022/03/16 02:08:30;;;;;;;3.17;2.97;;;;;;;;;;1619668;30;21991;-64
2022/03/16 02:09:21;;;;;;;3.92;3.40;;;;;;;;;;1618597;30;22529;-63
2022/03/16 02:10:14;;;;;;;5.15;3.72;;;;;;;;;;1619968;30;22066;-64
2022/03/16 02:11:06;;;;;;;4.28;3.65;;;;;;;;;;1618699;30;21695;-64
2022/03/16 02:11:58;;;;;;;4.05;3.45;;;;;;;;;;1622898;30;21607;-63
2022/03/16 02:12:51;;;;;;;4.63;3.65;;;;;;;;;;1620552;30;22367;-64
2022/03/16 02:13:43;;;;;;;5.82;3.45;;;;;;;;;;1620252;30;22228;-63
2022/03/16 02:14:35;;;;;;;7.13;3.75;;;;;;;;;;1617855;30;22780;-64
2022/03/16 02:15:27;;;;;;;4.22;3.80;;;;;;;;;;1621885;30;22087;-64
2022/03/16 02:16:19;;;;;;;5.45;3.92;;;;;;;;;;1618733;30;22137;-63
2022/03/16 02:17:11;;;;;;;4.03;3.63;;;;;;;;;;1620927;30;21656;-63
2022/03/16 02:18:03;;;;;;;4.32;3.58;;;;;;;;;;1619979;30;22257;-63
2022/03/16 02:18:55;;;;;;;5.65;3.67;;;;;;;;;;1620594;30;22345;-64
2022/03/16 02:19:46;;;;;;;6.30;3.33;;;;;;;;;;1619447;30;21688;-63
2022/03/16 02:20:39;;;;;;;8.20;3.80;;;;;;;;;;1617466;30;21619;-63
2022/03/16 02:21:31;;;;;;;9.35;3.72;;;;;;;;;;1619206;30;21603;-63
2022/03/16 02:22:24;;;;;;;4.68;3.40;;;;;;;;;;1618052;30;22721;-64
2022/03/16 02:23:17;;;;;;;4.00;3.55;;;;;;;;;;1619323;30;21815;-62
2022/03/16 02:24:10;;;;;;;10.27;3.97;;;;;;;;;;1619745;30;22310;-63
2022/03/16 02:25:01;;;;;;;15.35;4.10;;;;;;;;;;1618245;30;22443;-62
2022/03/16 02:25:56;;;;;;;5.20;3.30;;;;;;;;;;1615646;30;21684;-63
2022/03/16 02:26:47;;;;;;;8.65;3.95;;;;;;;;;;1618225;30;21618;-63
2022/03/16 02:27:41;;;;;;;6.65;3.70;;;;;;;;;;1617085;30;21669;-63
2022/03/16 02:28:32;;;;;;;3.65;3.25;;;;;;;;;;1619787;30;22497;-63
2022/03/16 02:29:25;;;;;;;6.10;3.63;;;;;;;;;;1621448;30;21689;-63
2022/03/16 02:30:16;;;;;;;8.18;4.25;;;;;;;;;;1620926;30;21604;-63
2022/03/16 02:31:08;;;;;;;6.38;3.60;;;;;;;;;;1619678;30;21649;-62
2022/03/16 02:32:00;;;;;;;10.90;3.50;;;;;;;;;;1619571;30;21694;-63
2022/03/16 02:32:52;;;;;;;4.72;3.20;;;;;;;;;;1617878;30;21652;-64
2022/03/16 02:33:44;;;;;;;15.30;3.55;;;;;;;;;;1617962;30;21782;-64
2022/03/16 02:34:36;;;;;;;3.70;3.05;;;;;;;;;;1617990;30;21663;-63
2022/03/16 02:35:31;;;;;;;9.23;3.55;;;;;;;;;;1619308;30;22591;-64
2022/03/16 02:36:24;;;;;;;11.25;3.35;;;;;;;;;;1617184;30;21594;-65
2022/03/16 02:37:15;;;;;;;12.23;3.47;;;;;;;;;;1618199;30;21617;-63
2022/03/16 02:38:08;;;;;;;4.10;3.60;;;;;;;;;;1614324;30;21631;-64
2022/03/16 02:39:01;;;;;;;6.25;3.78;;;;;;;;;;1619539;30;22565;-64
2022/03/16 02:39:53;;;;;;;9.57;3.78;;;;;;;;;;1618449;30;22812;-63
2022/03/16 02:40:45;;;;;;;5.82;3.70;;;;;;;;;;1618527;30;22275;-63
2022/03/16 02:41:37;;;;;;;10.75;4.07;;;;;;;;;;1618857;30;21660;-64
2022/03/16 02:42:28;;;;;;;3.88;3.35;;;;;;;;;;1620270;30;21874;-63
2022/03/16 02:43:21;;;;;;;4.07;3.67;;;;;;;;;;1619416;30;22404;-64
2022/03/16 02:44:12;;;;;;;11.23;4.05;;;;;;;;;;1618183;30;22522;-63
2022/03/16 02:45:06;;;;;;;14.43;3.97;;;;;;;;;;1620710;30;21997;-63
2022/03/16 02:45:58;;;;;;;12.30;3.33;;;;;;;;;;1622890;30;21627;-63
2022/03/16 02:46:50;;;;;;;4.65;3.28;;;;;;;;;;1619263;30;21610;-63
2022/03/16 02:47:41;;;;;;;4.60;3.55;;;;;;;;;;1619638;30;21656;-63
2022/03/16 02:48:34;;;;;;;3.72;3.42;;;;;;;;;;1619626;30;21586;-63
2022/03/16 02:49:28;;;;;;;6.15;3.80;;;;;;;;;;1613271;30;21570;-64
2022/03/16 02:50:21;;;;;;;5.07;3.38;;;;;;;;;;1618376;30;21774;-64
2022/03/16 02:51:12;;;;;;;4.55;3.55;;;;;;;;;;1617880;30;21986;-64
2022/03/16 02:52:08;;;;;;;8.65;3.55;;;;;;;;;;1620317;30;21833;-62
2022/03/16 02:52:59;;;;;;;9.07;3.72;;;;;;;;;;1620571;30;21728;-63
2022/03/16 02:53:52;;;;;;;6.45;3.15;;;;;;;;;;1617941;30;21614;-62
2022/03/16 02:54:45;;;;;;;8.45;3.53;;;;;;;;;;1619031;30;21576;-63
2022/03/16 02:55:38;;;;;;;4.00;3.60;;;;;;;;;;1619825;30;22536;-63
2022/03/16 02:56:29;;;;;;;5.00;3.50;;;;;;;;;;1618153;30;21657;-63
2022/03/16 02:57:22;;;;;;;4.95;3.08;;;;;;;;;;1619400;30;21654;-64
2022/03/16 02:58:13;;;;;;;7.70;3.25;;;;;;;;;;1618135;30;21592;-63
2022/03/16 02:59:06;;;;;;;9.50;3.40;;;;;;;;;;1622344;30;22622;-63
2022/03/16 02:59:57;;;;;;;6.97;3.10;;;;;;;;;;1626395;30;22134;-62
2022/03/16 03:00:50;;;;;;;7.10;3.80;;;;;;;;;;1620407;30;22390;-63
2022/03/16 03:01:41;;;;;;;3.45;3.10;;;;;;;;;;1618318;30;21696;-63
2022/03/16 03:02:34;;;;;;;4.88;2.80;;;;;;;;;;1618328;30;21598;-63
2022/03/16 03:03:25;;;;;;;5.15;3.08;;;;;;;;;;1620672;30;21570;-63
2022/03/16 03:04:17;;;;;;;5.90;3.58;;;;;;;;;;1620532;30;21671;-63
2022/03/16 03:05:09;;;;;;;10.77;3.17;;;;;;;;;;1617480;30;21732;-64
2022/03/16 03:06:02;;;;;;;4.97;3.15;;;;;;;;;;1618622;30;21598;-63
2022/03/16 03:06:53;;;;;;;5.57;3.20;;;;;;;;;;1618352;30;21606;-64
2022/03/16 03:07:45;;;;;;;4.90;3.13;;;;;;;;;;1619961;30;21905;-63
2022/03/16 03:08:36;;;;;;;8.20;3.50;;;;;;;;;;1617948;30;21714;-64
2022/03/16 03:09:29;;;;;;;3.60;3.10;;;;;;;;;;1620525;30;21766;-63
2022/03/16 03:10:22;;;;;;;6.97;3.40;;;;;;;;;;1620924;30;21713;-63
2022/03/16 03:11:14;;;;;;;3.72;2.92;;;;;;;;;;1617527;30;22614;-64
2022/03/16 03:12:07;;;;;;;5.88;3.72;;;;;;;;;;1617689;30;22051;-64
2022/03/16 03:13:00;;;;;;;8.57;3.08;;;;;;;;;;1619532;30;21609;-64
2022/03/16 03:13:51;;;;;;;5.53;3.20;;;;;;;;;;1618177;30;22489;-64
2022/03/16 03:14:43;;;;;;;7.25;3.53;;;;;;;;;;1618523;30;21610;-64
2022/03/16 03:15:35;;;;;;;10.13;3.20;;;;;;;;;;1619880;30;21630;-64
2022/03/16 03:16:28;;;;;;;11.98;3.60;;;;;;;;;;1617975;30;21795;-64
2022/03/16 03:17:19;;;;;;;5.22;3.45;;;;;;;;;;1618703;30;22333;-64
2022/03/16 03:18:11;;;;;;;3.70;2.90;;;;;;;;;;1620503;30;21728;-65
2022/03/16 03:19:03;;;;;;;4.60;2.78;;;;;;;;;;1621823;30;21845;-64
2022/03/16 03:19:55;;;;;;;3.67;3.38;;;;;;;;;;1615614;30;21734;-64
2022/03/16 03:20:46;;;;;;;5.18;3.08;;;;;;;;;;1620824;30;21665;-64
2022/03/16 03:21:38;;;;;;;6.90;2.80;;;;;;;;;;1619589;30;21996;-65
2022/03/16 03:22:30;;;;;;;4.82;3.30;;;;;;;;;;1619443;30;21894;-65
2022/03/16 03:23:22;;;;;;;3.95;2.70;;;;;;;;;;1617788;30;21740;-64
2022/03/16 03:24:13;;;;;;;7.18;3.03;;;;;;;;;;1618332;30;21714;-64
2022/03/16 03:25:10;;;;;;;4.63;3.03;;;;;;;;;;1620814;30;21653;-64
2022/03/16 03:26:04;;;;;;;5.82;3.65;;;;;;;;;;1620999;30;21843;-63
2022/03/16 03:26:56;;;;;;;6.75;3.22;;;;;;;;;;1619222;30;22232;-64
2022/03/16 03:27:48;;;;;;;3.60;2.80;;;;;;;;;;1619062;30;21672;-64
2022/03/16 03:28:40;;;;;;;6.25;3.42;;;;;;;;;;1619555;30;22077;-63
2022/03/16 03:29:31;;;;;;;5.38;3.05;;;;;;;;;;1620201;30;21679;-64
2022/03/16 03:30:24;;;;;;;5.68;3.70;;;;;;;;;;1621280;30;21612;-64
2022/03/16 03:31:15;;;;;;;11.43;3.50;;;;;;;;;;1627466;29;21804;-63
2022/03/16 03:32:08;;;;;;;5.10;3.00;;;;;;;;;;1625666;30;22015;-64
2022/03/16 03:33:00;;;;;;;3.50;3.15;;;;;;;;;;1623104;30;21615;-65
2022/03/16 03:33:52;;;;;;;7.97;3.15;;;;;;;;;;1618637;30;22266;-65
2022/03/16 03:34:46;;;;;;;6.00;3.10;;;;;;;;;;1621695;30;21594;-62
2022/03/16 03:35:39;;;;;;;7.88;3.05;;;;;;;;;;1619975;30;22266;-63
2022/03/16 03:36:30;;;;;;;6.60;2.90;;;;;;;;;;1616157;30;22273;-63
2022/03/16 03:37:25;;;;;;;3.70;3.33;;;;;;;;;;1619575;30;22505;-63
2022/03/16 03:38:16;;;;;;;5.05;3.33;;;;;;;;;;1621266;30;22576;-63
2022/03/16 03:39:08;;;;;;;8.52;3.00;;;;;;;;;;1618364;30;22688;-63
2022/03/16 03:40:00;;;;;;;12.98;3.35;;;;;;;;;;1620026;30;22321;-64
2022/03/16 03:40:52;;;;;;;6.25;3.13;;;;;;;;;;1618209;30;21651;-64
2022/03/16 03:41:45;;;;;;;9.30;2.97;;;;;;;;;;1622402;30;22092;-64
2022/03/16 03:42:37;;;;;;;7.03;2.75;;;;;;;;;;1620131;30;21556;-64
2022/03/16 03:43:29;;;;;;;9.23;3.00;;;;;;;;;;1619824;30;22344;-64
2022/03/16 03:44:21;;;;;;;3.47;2.63;;;;;;;;;;1619088;30;21593;-63
2022/03/16 03:45:12;;;;;;;5.40;2.92;;;;;;;;;;1619910;30;21669;-64
2022/03/16 03:46:04;;;;;;;10.20;3.10;;;;;;;;;;1619122;30;22058;-64
2022/03/16 03:46:56;;;;;;;4.57;3.00;;;;;;;;;;1619420;30;21606;-64
2022/03/16 03:47:48;;;;;;;10.02;3.20;;;;;;;;;;1618781;30;22654;-64
2022/03/16 03:48:39;;;;;;;4.10;3.17;;;;;;;;;;1620587;30;22022;-64
2022/03/16 03:49:33;;;;;;;6.40;3.08;;;;;;;;;;1622367;30;21583;-64
2022/03/16 03:50:24;;;;;;;3.58;2.78;;;;;;;;;;1619566;30;22251;-64
2022/03/16 03:51:17;;;;;;;7.57;2.85;;;;;;;;;;1620726;30;21986;-64
2022/03/16 03:52:09;;;;;;;3.03;2.72;;;;;;;;;;1619508;30;22026;-64
2022/03/16 03:53:01;;;;;;;3.78;3.05;;;;;;;;;;1617635;30;22537;-63
2022/03/16 03:53:52;;;;;;;7.15;2.92;;;;;;;;;;1623362;30;21640;-64
2022/03/16 03:54:45;;;;;;;4.03;3.20;;;;;;;;;;1619295;30;21589;-64
2022/03/16 03:55:36;;;;;;;4.90;3.20;;;;;;;;;;1616798;30;22306;-63
2022/03/16 03:56:28;;;;;;;5.50;3.15;;;;;;;;;;1619614;30;21598;-64
2022/03/16 03:57:21;;;;;;;6.18;3.25;;;;;;;;;;1622768;30;22093;-64
2022/03/16 03:58:13;;;;;;;5.50;2.85;;;;;;;;;;1619848;30;22007;-65
2022/03/16 03:59:05;;;;;;;8.35;2.90;;;;;;;;;;1619770;30;22298;-64
2022/03/16 03:59:57;;;;;;;5.05;3.28;;;;;;;;;;1620214;30;22299;-64
2022/03/16 04:00:49;;;;;;;5.18;3.22;;;;;;;;;;1619085;30;21631;-64
2022/03/16 04:01:41;;;;;;;6.45;3.03;;;;;;;;;;1625759;29;22380;-65
2022/03/16 04:02:32;;;;;;;7.30;3.20;;;;;;;;;;1628341;30;21616;-62
2022/03/16 04:03:25;;;;;;;5.40;3.45;;;;;;;;;;1622161;30;22211;-63
2022/03/16 04:04:17;;;;;;;5.03;4.00;;;;;;;;;;1621470;30;21641;-64
2022/03/16 04:05:10;;;;;;;5.93;3.28;;;;;;;;;;1621813;30;22348;-63
2022/03/16 04:06:01;;;;;;;15.00;3.30;;;;;;;;;;1621316;30;21646;-63
2022/03/16 04:06:53;;;;;;;10.80;3.50;;;;;;;;;;1618537;30;21764;-64
2022/03/16 04:07:45;;;;;;;13.30;3.42;;;;;;;;;;1619849;30;22205;-64
2022/03/16 04:08:38;;;;;;;7.68;3.25;;;;;;;;;;1620870;30;21587;-64
2022/03/16 04:09:29;;;;;;;6.55;3.50;;;;;;;;;;1618889;30;21596;-64
2022/03/16 04:10:21;;;;;;;5.22;3.08;;;;;;;;;;1621169;30;21599;-64
2022/03/16 04:11:13;;;;;;;7.30;3.28;;;;;;;;;;1619413;30;21604;-63
2022/03/16 04:12:07;;;;;;;4.70;3.80;;;;;;;;;;1619008;30;21616;-64
2022/03/16 04:12:59;;;;;;;9.40;2.97;;;;;;;;;;1619230;30;21602;-65
2022/03/16 04:13:52;;;;;;;6.25;3.58;;;;;;;;;;1620302;30;21592;-64
2022/03/16 04:14:43;;;;;;;7.28;3.83;;;;;;;;;;1618120;30;21600;-64
2022/03/16 04:15:35;;;;;;;6.82;3.08;;;;;;;;;;1619009;30;21623;-64
2022/03/16 04:16:27;;;;;;;5.90;3.55;;;;;;;;;;1618810;30;22104;-65
2022/03/16 04:17:19;;;;;;;7.38;3.55;;;;;;;;;;1618603;30;22084;-64
2022/03/16 04:18:10;;;;;;;6.28;3.10;;;;;;;;;;1619155;30;21683;-64
2022/03/16 04:19:03;;;;;;;3.60;3.22;;;;;;;;;;1621658;30;22659;-64
2022/03/16 04:19:54;;;;;;;4.75;3.08;;;;;;;;;;1620929;30;21598;-64
2022/03/16 04:20:46;;;;;;;8.88;3.85;;;;;;;;;;1620952;30;22140;-64
2022/03/16 04:21:37;;;;;;;13.07;3.42;;;;;;;;;;1620436;30;21936;-65
2022/03/16 04:22:30;;;;;;;7.68;3.17;;;;;;;;;;1613654;30;21816;-64
2022/03/16 04:23:22;;;;;;;9.43;2.97;;;;;;;;;;1613503;30;21649;-63
2022/03/16 04:24:14;;;;;;;4.13;2.97;;;;;;;;;;1616373;30;21587;-64
2022/03/16 04:25:07;;;;;;;10.90;3.47;;;;;;;;;;1618777;30;21611;-64
2022/03/16 04:26:00;;;;;;;5.70;3.20;;;;;;;;;;1619603;30;21862;-64
2022/03/16 04:26:51;;;;;;;9.13;3.03;;;;;;;;;;1620117;30;21554;-63
2022/03/16 04:27:43;;;;;;;3.33;3.03;;;;;;;;;;1621005;30;22589;-64
2022/03/16 04:28:36;;;;;;;15.07;3.70;;;;;;;;;;1621040;30;21788;-64
2022/03/16 04:29:28;;;;;;;7.40;3.22;;;;;;;;;;1618563;30;21610;-64
2022/03/16 04:30:19;;;;;;;4.13;3.05;;;;;;;;;;1621989;30;22418;-64
2022/03/16 04:31:12;;;;;;;13.45;3.38;;;;;;;;;;1618544;30;22533;-64
2022/03/16 04:32:05;;;;;;;8.68;3.58;;;;;;;;;;1619184;30;22259;-64
2022/03/16 04:32:57;;;;;;;3.17;2.58;;;;;;;;;;1619322;30;22667;-64
2022/03/16 04:33:48;;;;;;;8.32;3.70;;;;;;;;;;1623212;29;21709;-65
2022/03/16 04:34:41;;;;;;;5.35;3.63;;;;;;;;;;1620721;30;22366;-64
2022/03/16 04:35:32;;;;;;;5.78;3.08;;;;;;;;;;1620440;30;21621;-65
2022/03/16 04:36:24;;;;;;;4.10;3.20;;;;;;;;;;1617622;30;21926;-66
2022/03/16 04:37:16;;;;;;;4.78;3.28;;;;;;;;;;1620817;30;21608;-65
2022/03/16 04:38:08;;;;;;;8.30;3.50;;;;;;;;;;1621203;30;21613;-64
2022/03/16 04:39:00;;;;;;;8.77;3.67;;;;;;;;;;1619568;30;21638;-64
2022/03/16 04:39:52;;;;;;;4.85;3.30;;;;;;;;;;1620119;30;22000;-64
2022/03/16 04:40:43;;;;;;;6.65;3.28;;;;;;;;;;1618058;30;22650;-65
2022/03/16 04:41:36;;;;;;;7.00;3.58;;;;;;;;;;1618120;30;21744;-64
2022/03/16 04:42:27;;;;;;;6.25;3.15;;;;;;;;;;1621190;30;22038;-65
2022/03/16 04:43:19;;;;;;;7.43;3.28;;;;;;;;;;1619257;30;21661;-64
2022/03/16 04:44:12;;;;;;;4.47;3.45;;;;;;;;;;1619834;30;21727;-64
2022/03/16 04:45:05;;;;;;;5.38;3.50;;;;;;;;;;1619587;30;21641;-65
2022/03/16 04:45:57;;;;;;;6.90;3.97;;;;;;;;;;1622251;30;21697;-64
2022/03/16 04:46:49;;;;;;;4.45;3.63;;;;;;;;;;1618935;30;21607;-64
2022/03/16 04:47:41;;;;;;;7.13;3.53;;;;;;;;;;1619862;30;22103;-64
2022/03/16 04:48:33;;;;;;;8.50;3.30;;;;;;;;;;1624665;30;22158;-64
2022/03/16 04:49:24;;;;;;;3.85;2.83;;;;;;;;;;1619843;30;22065;-65
2022/03/16 04:50:18;;;;;;;10.15;3.67;;;;;;;;;;1619522;30;21598;-64
2022/03/16 04:51:09;;;;;;;4.68;2.83;;;;;;;;;;1619177;30;21749;-64
2022/03/16 04:52:01;;;;;;;9.65;3.33;;;;;;;;;;1619719;30;22289;-65
2022/03/16 04:52:52;;;;;;;7.20;3.15;;;;;;;;;;1620257;30;21633;-62
2022/03/16 04:53:45;;;;;;;4.15;3.53;;;;;;;;;;1618813;30;21629;-63
2022/03/16 04:54:36;;;;;;;3.90;3.13;;;;;;;;;;1620992;30;22543;-62
2022/03/16 04:55:29;;;;;;;6.13;2.97;;;;;;;;;;1621247;30;21953;-63
2022/03/16 04:56:20;;;;;;;5.18;3.33;;;;;;;;;;1617541;30;22034;-65
2022/03/16 04:57:12;;;;;;;7.13;3.33;;;;;;;;;;1618116;30;21895;-63
2022/03/16 04:58:04;;;;;;;12.18;4.43;;;;;;;;;;1621376;30;21617;-64
2022/03/16 04:58:56;;;;;;;6.15;3.90;;;;;;;;;;1620543;30;21665;-65
2022/03/16 04:59:49;;;;;;;3.88;2.92;;;;;;;;;;1621105;30;21580;-64
2022/03/16 05:00:42;;;;;;;7.68;3.88;;;;;;;;;;1617814;30;21637;-64
2022/03/16 05:01:33;;;;;;;9.40;3.50;;;;;;;;;;1620249;30;21653;-65
2022/03/16 05:02:25;;;;;;;5.10;3.40;;;;;;;;;;1618877;30;21645;-64
2022/03/16 05:03:17;;;;;;;4.15;3.30;;;;;;;;;;1618659;30;22910;-64
2022/03/16 05:04:09;;;;;;;5.40;3.40;;;;;;;;;;1621496;30;21706;-63
2022/03/16 05:05:00;;;;;;;5.18;3.40;;;;;;;;;;1617988;30;21606;-65
2022/03/16 05:05:53;;;;;;;9.68;3.13;;;;;;;;;;1619490;30;21566;-63
2022/03/16 05:06:44;;;;;;;7.90;3.30;;;;;;;;;;1618399;30;21604;-62
2022/03/16 05:07:36;;;;;;;10.23;3.88;;;;;;;;;;1622053;30;21855;-64
2022/03/16 05:08:28;;;;;;;6.68;3.80;;;;;;;;;;1622526;30;22109;-62
2022/03/16 05:09:20;;;;;;;5.30;3.45;;;;;;;;;;1620209;30;21789;-63
2022/03/16 05:10:11;;;;;;;5.63;3.85;;;;;;;;;;1621405;30;22563;-63
2022/03/16 05:11:04;;;;;;;8.45;3.67;;;;;;;;;;1618704;30;22485;-63
2022/03/16 05:11:55;;;;;;;4.25;3.28;;;;;;;;;;1618882;30;21911;-64
2022/03/16 05:12:48;;;;;;;7.05;3.35;;;;;;;;;;1618554;30;21656;-63